createdAt,value
2022-08-26T00:01:59.203Z,21.41
2022-08-26T00:05:03.820Z,21.44
2022-08-26T00:08:06.517Z,21.30
2022-08-26T00:11:11.700Z,21.27
2022-08-26T00:14:14.843Z,21.17
2022-08-26T00:17:18.749Z,21.17
2022-08-26T00:20:26.020Z,21.16
2022-08-26T00:23:30.338Z,21.31
2022-08-26T00:26:34.943Z,21.42
2022-08-26T00:29:37.815Z,21.33
2022-08-26T00:32:41.227Z,21.27
2022-08-26T00:35:47.417Z,21.15
2022-08-26T00:38:50.089Z,21.06
2022-08-26T00:41:54.029Z,21.08
2022-08-26T00:44:56.720Z,20.98
2022-08-26T00:48:02.537Z,20.92
2022-08-26T00:51:10.734Z,20.89
2022-08-26T00:54:14.058Z,20.83
2022-08-26T00:57:20.502Z,20.85
2022-08-26T01:00:28.324Z,20.83
2022-08-26T01:03:33.385Z,20.90
2022-08-26T01:06:36.100Z,20.84
2022-08-26T01:09:39.232Z,20.81
2022-08-26T01:12:49.941Z,20.82
2022-08-26T01:15:56.067Z,20.71
2022-08-26T01:19:04.008Z,20.78
2022-08-26T01:22:09.823Z,20.77
2022-08-26T01:25:14.588Z,20.72
2022-08-26T01:28:21.712Z,20.68
2022-08-26T01:31:29.659Z,20.65
2022-08-26T01:34:36.133Z,20.63
2022-08-26T01:37:40.507Z,20.69
2022-08-26T01:40:45.812Z,20.64
2022-08-26T01:43:51.225Z,20.59
2022-08-26T01:46:54.966Z,20.57
2022-08-26T01:49:58.447Z,20.54
2022-08-26T01:53:04.995Z,20.53
2022-08-26T01:56:10.237Z,20.51
2022-08-26T01:59:15.369Z,20.50
2022-08-26T02:02:20.141Z,20.49
2022-08-26T02:05:22.993Z,20.46
2022-08-26T02:08:28.308Z,20.39
2022-08-26T02:11:32.853Z,20.35
2022-08-26T02:14:43.707Z,20.31
2022-08-26T02:17:47.890Z,20.29
2022-08-26T02:20:51.739Z,20.23
2022-08-26T02:23:56.043Z,20.22
2022-08-26T02:27:01.487Z,20.27
2022-08-26T02:30:12.676Z,20.32
2022-08-26T02:33:15.484Z,20.30
2022-08-26T02:36:20.900Z,20.20
2022-08-26T02:39:23.694Z,20.20
2022-08-26T02:42:28.335Z,20.07
2022-08-26T02:45:31.192Z,20.01
2022-08-26T02:48:33.938Z,20.06
2022-08-26T02:51:36.949Z,20.02
2022-08-26T02:54:40.094Z,19.95
2022-08-26T02:57:44.197Z,19.85
2022-08-26T03:00:52.908Z,19.81
2022-08-26T03:03:56.430Z,19.75
2022-08-26T03:06:59.226Z,19.78
2022-08-26T03:10:01.866Z,19.76
2022-08-26T03:13:12.484Z,19.69
2022-08-26T03:16:15.687Z,19.71
2022-08-26T03:19:18.423Z,19.68
2022-08-26T03:22:21.681Z,19.66
2022-08-26T03:25:26.162Z,19.60
2022-08-26T03:28:30.072Z,19.56
2022-08-26T03:31:31.874Z,19.52
2022-08-26T03:34:35.015Z,19.48
2022-08-26T03:37:38.128Z,19.48
2022-08-26T03:40:42.398Z,19.54
2022-08-26T03:43:48.317Z,19.53
2022-08-26T03:46:51.310Z,19.47
2022-08-26T03:49:54.128Z,19.45
2022-08-26T03:52:57.131Z,19.44
2022-08-26T03:55:59.731Z,19.45
2022-08-26T03:59:04.030Z,19.39
2022-08-26T04:02:08.516Z,19.40
2022-08-26T04:05:15.001Z,19.42
2022-08-26T04:08:18.835Z,19.39
2022-08-26T04:11:23.089Z,19.34
2022-08-26T04:14:28.336Z,19.22
2022-08-26T04:17:30.985Z,19.11
2022-08-26T04:20:35.141Z,19.15
2022-08-26T04:23:47.511Z,19.23
2022-08-26T04:26:51.029Z,19.23
2022-08-26T04:29:55.408Z,19.19
2022-08-26T04:32:58.275Z,19.15
2022-08-26T04:36:02.280Z,19.09
2022-08-26T04:39:06.187Z,19.10
2022-08-26T04:42:09.544Z,19.11
2022-08-26T04:45:14.075Z,19.18
2022-08-26T04:48:17.003Z,19.21
2022-08-26T04:51:27.420Z,19.35
2022-08-26T04:54:30.868Z,19.40
2022-08-26T04:57:33.875Z,19.45
2022-08-26T05:00:38.165Z,19.48
2022-08-26T05:03:41.017Z,19.50
2022-08-26T05:06:44.528Z,19.56
2022-08-26T05:09:47.293Z,19.65
2022-08-26T05:12:49.924Z,19.71
2022-08-26T05:15:54.509Z,19.79
2022-08-26T05:18:59.362Z,19.85
2022-08-26T05:22:02.634Z,19.89
2022-08-26T05:25:05.763Z,19.97
2022-08-26T05:28:08.548Z,20.05
2022-08-26T05:31:17.774Z,20.16
2022-08-26T05:34:21.198Z,20.22
2022-08-26T05:37:24.217Z,20.30
2022-08-26T05:40:27.191Z,20.36
2022-08-26T05:43:29.898Z,20.40
2022-08-26T05:46:34.584Z,20.39
2022-08-26T05:49:37.281Z,20.46
2022-08-26T05:52:52.201Z,20.53
2022-08-26T05:55:56.057Z,20.57
2022-08-26T05:58:59.641Z,20.64
2022-08-26T06:02:04.374Z,20.68
2022-08-26T06:05:07.731Z,20.84
2022-08-26T06:08:14.113Z,20.80
2022-08-26T06:11:19.213Z,20.78
2022-08-26T06:14:22.953Z,20.81
2022-08-26T06:17:27.021Z,20.81
2022-08-26T06:20:31.991Z,20.92
2022-08-26T06:23:52.444Z,20.97
2022-08-26T06:26:56.775Z,20.96
2022-08-26T06:29:59.569Z,21.01
2022-08-26T06:33:03.783Z,21.06
2022-08-26T06:36:08.484Z,21.11
2022-08-26T06:39:13.423Z,21.26
2022-08-26T06:42:16.750Z,21.38
2022-08-26T06:45:20.049Z,21.55
2022-08-26T06:48:24.221Z,21.73
2022-08-26T06:51:30.953Z,21.80
2022-08-26T06:54:37.101Z,21.84
2022-08-26T06:57:41.496Z,21.92
2022-08-26T07:00:47.488Z,21.88
2022-08-26T07:03:54.561Z,21.97
2022-08-26T07:07:00.293Z,22.11
2022-08-26T07:10:04.767Z,22.21
2022-08-26T07:13:08.043Z,22.22
2022-08-26T07:16:13.033Z,22.36
2022-08-26T07:19:17.752Z,22.49
2022-08-26T07:22:32.364Z,22.64
2022-08-26T07:25:35.123Z,22.73
2022-08-26T07:28:38.509Z,22.78
2022-08-26T07:31:42.722Z,22.99
2022-08-26T07:34:47.041Z,22.96
2022-08-26T07:37:51.876Z,23.02
2022-08-26T07:40:57.856Z,23.31
2022-08-26T07:44:01.233Z,23.52
2022-08-26T07:47:03.857Z,23.68
2022-08-26T07:50:14.730Z,23.89
2022-08-26T07:53:18.263Z,24.07
2022-08-26T07:56:23.097Z,24.24
2022-08-26T07:59:26.263Z,24.43
2022-08-26T08:02:29.727Z,24.57
2022-08-26T08:05:34.486Z,24.77
2022-08-26T08:08:37.348Z,24.92
2022-08-26T08:11:40.482Z,24.96
2022-08-26T08:14:45.364Z,25.22
2022-08-26T08:17:50.431Z,25.44
2022-08-26T08:21:10.778Z,25.64
2022-08-26T08:24:18.055Z,25.85
2022-08-26T08:27:23.856Z,25.92
2022-08-26T08:30:28.065Z,26.01
2022-08-26T08:33:31.127Z,26.13
2022-08-26T08:36:36.261Z,26.06
2022-08-26T08:39:39.175Z,26.01
2022-08-26T08:42:46.887Z,26.05
2022-08-26T08:45:51.885Z,26.17
2022-08-26T08:48:57.252Z,26.26
2022-08-26T08:52:04.223Z,26.68
2022-08-26T08:55:11.039Z,27.24
2022-08-26T08:58:19.687Z,27.77
2022-08-26T09:01:29.638Z,28.14
2022-08-26T09:04:51.913Z,28.46
2022-08-26T09:07:57.594Z,28.80
2022-08-26T09:11:02.734Z,29.25
2022-08-26T09:14:05.410Z,29.27
2022-08-26T09:17:09.505Z,29.51
2022-08-26T09:20:15.789Z,30.05
2022-08-26T09:23:19.697Z,30.04
2022-08-26T09:26:29.240Z,30.14
2022-08-26T09:29:36.210Z,30.57
2022-08-26T09:32:39.112Z,31.09
2022-08-26T09:35:45.523Z,31.29
2022-08-26T09:38:50.384Z,31.54
2022-08-26T09:42:12.814Z,31.72
2022-08-26T09:45:17.231Z,31.43
2022-08-26T09:48:29.694Z,31.65
2022-08-26T09:51:32.885Z,31.76
2022-08-26T09:54:37.961Z,31.85
2022-08-26T09:57:47.372Z,31.80
2022-08-26T10:00:56.092Z,31.91
2022-08-26T10:04:07.330Z,31.61
2022-08-26T10:07:10.732Z,31.17
2022-08-26T10:10:19.858Z,31.22
2022-08-26T10:13:31.205Z,31.46
2022-08-26T10:16:40.764Z,31.67
2022-08-26T10:19:56.910Z,31.66
2022-08-26T10:23:02.789Z,31.80
2022-08-26T10:26:10.816Z,31.73
2022-08-26T10:29:19.794Z,31.86
2022-08-26T10:32:27.175Z,31.35
2022-08-26T10:35:31.835Z,31.28
2022-08-26T10:38:36.390Z,31.19
2022-08-26T10:41:44.385Z,30.96
2022-08-26T10:44:49.246Z,30.89
2022-08-26T10:47:56.540Z,31.13
2022-08-26T10:50:59.534Z,31.54
2022-08-26T10:54:04.079Z,30.95
2022-08-26T10:57:14.113Z,30.78
2022-08-26T11:00:37.921Z,30.95
2022-08-26T11:03:44.164Z,31.41
2022-08-26T11:06:46.839Z,31.96
2022-08-26T11:09:50.534Z,32.60
2022-08-26T11:12:57.707Z,32.68
2022-08-26T11:16:01.130Z,33.10
2022-08-26T11:19:04.095Z,33.69
2022-08-26T11:22:10.035Z,34.10
2022-08-26T11:25:15.684Z,34.17
2022-08-26T11:28:35.421Z,34.80
2022-08-26T11:31:54.577Z,34.86
2022-08-26T11:34:59.299Z,34.99
2022-08-26T11:38:05.377Z,34.49
2022-08-26T11:41:11.431Z,34.23
2022-08-26T11:44:21.603Z,33.90
2022-08-26T11:47:29.427Z,34.67
2022-08-26T11:50:32.363Z,35.12
2022-08-26T11:53:37.717Z,35.43
2022-08-26T11:56:42.925Z,34.48
2022-08-26T11:59:47.516Z,34.93
2022-08-26T12:02:51.273Z,34.52
2022-08-26T12:05:55.438Z,34.32
2022-08-26T12:09:00.630Z,34.21
2022-08-26T12:12:15.319Z,34.49
2022-08-26T12:15:21.937Z,34.80
2022-08-26T12:18:29.389Z,34.55
2022-08-26T12:21:34.880Z,34.78
2022-08-26T12:24:44.092Z,35.03
2022-08-26T12:27:49.581Z,35.67
2022-08-26T12:31:02.146Z,36.39
2022-08-26T12:34:06.551Z,36.77
2022-08-26T12:37:20.498Z,37.13
2022-08-26T12:40:34.174Z,36.90
2022-08-26T12:43:42.017Z,37.26
2022-08-26T12:46:49.740Z,37.75
2022-08-26T12:50:01.145Z,36.71
2022-08-26T12:53:06.976Z,36.36
2022-08-26T12:56:22.286Z,38.11
2022-08-26T12:59:26.909Z,37.56
2022-08-26T13:02:37.667Z,41.27
2022-08-26T13:05:40.285Z,44.21
2022-08-26T13:08:43.297Z,47.00
2022-08-26T13:11:59.322Z,49.58
2022-08-26T13:15:06.448Z,51.71
2022-08-26T13:18:10.421Z,51.79
2022-08-26T13:21:14.543Z,51.76
2022-08-26T13:24:19.615Z,51.72
2022-08-26T13:27:24.429Z,45.61
2022-08-26T13:30:27.055Z,41.50
2022-08-26T13:33:31.204Z,38.84
2022-08-26T13:36:33.721Z,37.19
2022-08-26T13:39:36.757Z,35.50
2022-08-26T13:42:49.548Z,34.86
2022-08-26T13:45:52.663Z,34.68
2022-08-26T13:48:56.952Z,34.26
2022-08-26T13:51:59.684Z,34.48
2022-08-26T13:55:02.465Z,33.78
2022-08-26T13:58:05.095Z,33.32
2022-08-26T14:01:09.854Z,33.02
2022-08-26T14:04:13.816Z,32.67
2022-08-26T14:07:16.553Z,32.36
2022-08-26T14:10:19.291Z,32.32
2022-08-26T14:13:24.424Z,31.94
2022-08-26T14:16:28.975Z,32.21
2022-08-26T14:19:33.216Z,31.92
2022-08-26T14:22:40.495Z,31.49
2022-08-26T14:25:46.308Z,31.26
2022-08-26T14:28:48.892Z,31.53
2022-08-26T14:31:51.811Z,31.60
2022-08-26T14:34:56.274Z,31.31
2022-08-26T14:37:59.240Z,31.08
2022-08-26T14:41:01.937Z,31.31
2022-08-26T14:44:07.320Z,31.13
2022-08-26T14:47:12.712Z,31.09
2022-08-26T14:50:19.614Z,31.17
2022-08-26T14:53:39.978Z,31.14
2022-08-26T14:56:46.521Z,31.26
2022-08-26T14:59:50.463Z,31.35
2022-08-26T15:02:53.249Z,31.22
2022-08-26T15:05:57.396Z,31.04
2022-08-26T15:09:00.460Z,30.94
2022-08-26T15:12:03.402Z,31.00
2022-08-26T15:15:07.302Z,31.06
2022-08-26T15:18:10.088Z,31.06
2022-08-26T15:21:14.354Z,31.12
2022-08-26T15:24:18.709Z,31.03
2022-08-26T15:27:21.512Z,30.93
2022-08-26T15:30:24.182Z,30.72
2022-08-26T15:33:26.881Z,30.53
2022-08-26T15:36:32.383Z,30.40
2022-08-26T15:39:35.406Z,30.24
2022-08-26T15:42:38.037Z,30.01
2022-08-26T15:45:40.663Z,29.79
2022-08-26T15:48:43.374Z,29.54
2022-08-26T15:51:50.325Z,28.88
2022-08-26T15:54:53.220Z,28.04
2022-08-26T15:57:55.815Z,27.66
2022-08-26T16:00:59.902Z,27.31
2022-08-26T16:04:03.163Z,26.80
2022-08-26T16:07:07.234Z,25.46
2022-08-26T16:10:10.582Z,22.64
2022-08-26T16:13:14.808Z,21.52
2022-08-26T16:16:17.984Z,21.01
2022-08-26T16:19:21.029Z,20.70
2022-08-26T16:22:27.162Z,20.39
2022-08-26T16:25:31.464Z,20.20
2022-08-26T16:28:34.186Z,20.50
2022-08-26T16:31:37.929Z,20.46
2022-08-26T16:34:56.720Z,20.19
2022-08-26T16:38:01.250Z,20.27
2022-08-26T16:41:04.574Z,20.12
2022-08-26T16:44:08.256Z,19.85
2022-08-26T16:47:12.186Z,19.99
2022-08-26T16:50:16.068Z,20.08
2022-08-26T16:53:20.155Z,20.11
2022-08-26T16:56:33.586Z,20.17
2022-08-26T16:59:37.005Z,19.90
2022-08-26T17:02:40.011Z,19.87
2022-08-26T17:05:42.756Z,19.75
2022-08-26T17:08:46.662Z,19.71
2022-08-26T17:11:50.261Z,19.54
2022-08-26T17:14:52.960Z,19.53
2022-08-26T17:17:56.620Z,19.38
2022-08-26T17:21:02.111Z,19.33
2022-08-26T17:24:06.904Z,19.24
2022-08-26T17:27:09.704Z,19.19
2022-08-26T17:30:13.545Z,19.08
2022-08-26T17:33:17.094Z,19.05
2022-08-26T17:36:28.062Z,19.20
2022-08-26T17:39:32.350Z,19.18
2022-08-26T17:42:34.946Z,19.23
2022-08-26T17:45:38.461Z,19.16
2022-08-26T17:48:41.723Z,19.17
2022-08-26T17:51:44.164Z,19.18
2022-08-26T17:54:48.134Z,18.99
2022-08-26T17:57:53.557Z,19.01
2022-08-26T18:00:56.462Z,18.89
2022-08-26T18:04:00.607Z,18.97
2022-08-26T18:07:03.791Z,19.05
2022-08-26T18:10:13.015Z,19.01
2022-08-26T18:13:16.249Z,19.11
2022-08-26T18:16:19.435Z,19.34
2022-08-26T18:19:21.851Z,19.37
2022-08-26T18:22:24.346Z,19.34
2022-08-26T18:25:28.302Z,19.19
2022-08-26T18:28:30.884Z,19.27
2022-08-26T18:31:35.334Z,19.23
2022-08-26T18:34:38.031Z,19.16
2022-08-26T18:37:40.992Z,19.19
2022-08-26T18:40:46.499Z,19.32
2022-08-26T18:43:50.252Z,19.49
2022-08-26T18:46:53.155Z,19.55
2022-08-26T18:49:55.765Z,19.51
2022-08-26T18:52:58.367Z,19.58
2022-08-26T18:56:02.438Z,19.47
2022-08-26T18:59:06.833Z,19.50
2022-08-26T19:02:10.223Z,19.57
2022-08-26T19:05:12.985Z,19.51
2022-08-26T19:08:15.625Z,19.51
2022-08-26T19:11:31.192Z,19.42
2022-08-26T19:14:40.450Z,19.46
2022-08-26T19:17:43.062Z,19.46
2022-08-26T19:20:47.804Z,19.48
2022-08-26T19:23:50.495Z,19.47
2022-08-26T19:26:58.355Z,19.46
2022-08-26T19:30:01.142Z,19.49
2022-08-26T19:33:05.197Z,19.51
2022-08-26T19:36:14.143Z,19.50
2022-08-26T19:39:17.635Z,19.49
2022-08-26T19:42:21.652Z,19.47
2022-08-26T19:45:25.484Z,19.49
2022-08-26T19:48:29.108Z,19.64
2022-08-26T19:51:33.501Z,19.72
2022-08-26T19:54:36.258Z,19.74
2022-08-26T19:57:40.437Z,19.67
2022-08-26T20:00:43.032Z,19.76
2022-08-26T20:03:46.016Z,19.81
2022-08-26T20:06:48.636Z,19.86
2022-08-26T20:09:59.323Z,19.81
2022-08-26T20:13:03.207Z,19.79
2022-08-26T20:16:06.411Z,19.66
2022-08-26T20:19:26.306Z,19.71
2022-08-26T20:22:29.195Z,19.62
2022-08-26T20:25:32.935Z,19.61
2022-08-26T20:28:36.948Z,19.61
2022-08-26T20:31:39.906Z,19.66
2022-08-26T20:34:42.653Z,19.58
2022-08-26T20:37:45.230Z,19.43
2022-08-26T20:40:48.844Z,19.39
2022-08-26T20:43:52.810Z,19.49
2022-08-26T20:46:56.546Z,19.62
2022-08-26T20:49:59.191Z,19.67
2022-08-26T20:53:01.887Z,19.59
2022-08-26T20:56:06.774Z,19.45
2022-08-26T20:59:10.895Z,19.38
2022-08-26T21:02:13.483Z,19.23
2022-08-26T21:05:16.134Z,19.09
2022-08-26T21:08:18.820Z,19.10
2022-08-26T21:11:22.536Z,19.10
2022-08-26T21:14:26.537Z,19.17
2022-08-26T21:17:29.263Z,19.15
2022-08-26T21:20:32.498Z,19.18
2022-08-26T21:23:35.232Z,19.09
2022-08-26T21:26:38.123Z,19.11
2022-08-26T21:29:42.011Z,19.17
2022-08-26T21:32:44.648Z,19.18
2022-08-26T21:35:52.266Z,19.26
2022-08-26T21:38:56.683Z,19.31
2022-08-26T21:41:59.338Z,19.35
2022-08-26T21:45:05.276Z,19.42
2022-08-26T21:48:07.859Z,19.36
2022-08-26T21:51:12.074Z,19.36
2022-08-26T21:54:15.451Z,19.31
2022-08-26T21:57:18.419Z,19.29
2022-08-26T22:00:22.625Z,19.23
2022-08-26T22:03:25.308Z,19.16
2022-08-26T22:06:29.742Z,19.13
2022-08-26T22:09:32.861Z,19.10
2022-08-26T22:12:36.101Z,19.14
2022-08-26T22:15:40.665Z,19.11
2022-08-26T22:18:43.831Z,19.19
2022-08-26T22:21:46.649Z,19.29
2022-08-26T22:24:49.221Z,19.36
2022-08-26T22:27:51.949Z,19.39
2022-08-26T22:30:56.539Z,19.37
2022-08-26T22:33:59.794Z,19.41
2022-08-26T22:37:03.140Z,19.48
2022-08-26T22:40:07.459Z,19.51
2022-08-26T22:43:10.018Z,19.52
2022-08-26T22:46:18.411Z,19.63
2022-08-26T22:49:21.157Z,19.65
2022-08-26T22:52:23.949Z,19.62
2022-08-26T22:55:26.623Z,19.63
2022-08-26T22:58:30.585Z,19.69
2022-08-26T23:01:37.731Z,19.70
2022-08-26T23:04:40.988Z,19.75
2022-08-26T23:07:43.536Z,19.74
2022-08-26T23:10:47.863Z,19.83
2022-08-26T23:13:50.577Z,19.90
2022-08-26T23:16:54.635Z,20.00
2022-08-26T23:19:58.065Z,20.09
2022-08-26T23:23:01.353Z,20.14
2022-08-26T23:26:06.224Z,20.17
2022-08-26T23:29:10.876Z,20.19
2022-08-26T23:32:14.974Z,20.20
2022-08-26T23:35:21.484Z,20.20
2022-08-26T23:38:24.186Z,20.18
2022-08-26T23:41:27.516Z,20.24
2022-08-26T23:44:30.922Z,20.19
2022-08-26T23:47:34.956Z,20.25
2022-08-26T23:50:55.122Z,20.21
2022-08-26T23:53:58.421Z,20.25
2022-08-26T23:57:01.101Z,20.19
